OIIS  Semnan  Airport

Semnan, Iran

Add Bookmark
ICAO OIIS
Type Airport
Status Operational
Latitude
35° 35' 27" N
35.591099
Longitude
53° 29' 42" E
53.495098
Local (DST + 5) UTC (GMT + 4)
Jul 28, 2015 10:17 Jul 28, 2015 05:47
Sunrise-Sunset Local UTC
Begin Civil Twilight 05:31 01:01
Sunrise 05:59 01:29
Sunset 08:05 15:35
End Civil Twilight 08:33 16:03
VFR
VFR
MVFR
MVFR
IFR
IFR
LIFR
LIFR
Unknown
Unavailable

Current Weather

METAR Observed VFR
OIIS 280500Z 00000KT CAVOK 31/00 Q1010 Tue, Jul 28, 2015 @ 05:00 UTC
(47 Minutes ago)
Visual Flight Rules
Wind Visibility Conditions
Calm 10 km or more
  • No significant weather
Temperatures Readings Precipitation
Current Temp
31°C
88°F
Dewpoint
0°C
32°F
Humidity 13%
Altimeter 29.82" Hg
Sea Level Pressure 1,010 mb
Field Elevation
1,115 m
3,658 ft
None Recorded
-
-

CheckWX.com is intended as a tool to help pilots better visualize weather data. It is not intended as a substitute for an official weather briefing obtained from a Flight Service Station. CheckWX.com does not meet the FAA requirements for an official pre-flight weather briefing. Therefore, it's important that pilots still call and obtain an official FSS pre-flight weather briefing.

© 2007-2015 CheckWX.com
05:47:04 UTC